Time;durP1;ratioP1;P1;durP2;ratioP2;P2;SDS_P1;SDS_P2;PMS_P1;PMS_P2;Temp;Humidity;BMP_temperature;BMP_pressure;BME280_temperature;BME280_humidity;BME280_pressure;Samples;Min_cycle;Max_cycle;Signal;HPM_P1;HPM_P2
2024/01/02 00:01:09;;;;;;;4.38;0.95;;;;;;;;;;5114690;28;20043;-79
2024/01/02 00:03:35;;;;;;;5.47;0.80;;;;;;;;;;5096739;28;20043;-78
2024/01/02 00:06:01;;;;;;;9.80;1.10;;;;;;;;;;5096539;28;20039;-78
2024/01/02 00:08:27;;;;;;;9.25;1.17;;;;;;;;;;5114605;28;20047;-78
2024/01/02 00:10:53;;;;;;;6.38;1.13;;;;;;;;;;5114763;28;20134;-78
2024/01/02 00:13:19;;;;;;;3.65;0.80;;;;;;;;;;5114152;28;20043;-78
2024/01/02 00:15:45;;;;;;;7.45;0.85;;;;;;;;;;5115375;28;20047;-78
2024/01/02 00:18:12;;;;;;;4.03;0.73;;;;;;;;;;5096565;28;20052;-78
2024/01/02 00:20:38;;;;;;;7.03;1.10;;;;;;;;;;5096403;28;20039;-78
2024/01/02 00:23:04;;;;;;;7.70;1.00;;;;;;;;;;5096448;28;20087;-78
2024/01/02 00:25:30;;;;;;;5.38;0.88;;;;;;;;;;5097139;28;20504;-78
2024/01/02 00:27:56;;;;;;;5.65;0.80;;;;;;;;;;5114420;28;20097;-78
2024/01/02 00:30:22;;;;;;;4.40;0.50;;;;;;;;;;5096182;28;20043;-78
2024/01/02 00:32:48;;;;;;;5.70;0.80;;;;;;;;;;5114338;28;20082;-78
2024/01/02 00:35:14;;;;;;;5.85;0.60;;;;;;;;;;5113934;28;20547;-78
2024/01/02 00:37:40;;;;;;;6.20;0.55;;;;;;;;;;5114076;28;20112;-78
2024/01/02 00:40:06;;;;;;;5.22;0.80;;;;;;;;;;5114114;28;20458;-79
2024/01/02 00:42:33;;;;;;;7.18;1.20;;;;;;;;;;5079025;28;20168;-79
2024/01/02 00:44:59;;;;;;;9.98;1.02;;;;;;;;;;5113633;28;20139;-79
2024/01/02 00:47:26;;;;;;;6.65;0.90;;;;;;;;;;5095992;28;20096;-79
2024/01/02 00:49:52;;;;;;;6.63;0.88;;;;;;;;;;5114654;28;20048;-79
2024/01/02 00:52:18;;;;;;;6.90;0.93;;;;;;;;;;5095878;28;20426;-79
2024/01/02 00:54:44;;;;;;;11.82;1.38;;;;;;;;;;5096108;28;20130;-78
2024/01/02 00:57:11;;;;;;;10.98;1.13;;;;;;;;;;5113992;28;20044;-78
2024/01/02 00:59:37;;;;;;;9.77;1.00;;;;;;;;;;5096093;28;20130;-78
2024/01/02 01:02:04;;;;;;;9.07;1.35;;;;;;;;;;5113870;28;20047;-78
2024/01/02 01:04:30;;;;;;;13.82;1.75;;;;;;;;;;5095994;28;20047;-78
2024/01/02 01:06:57;;;;;;;7.93;1.42;;;;;;;;;;5113709;28;20054;-78
2024/01/02 01:09:23;;;;;;;9.70;1.52;;;;;;;;;;5113951;28;20074;-78
2024/01/02 01:11:49;;;;;;;12.30;1.80;;;;;;;;;;5079516;28;20134;-78
2024/01/02 01:14:15;;;;;;;15.90;2.55;;;;;;;;;;5113304;28;20051;-78
2024/01/02 01:16:41;;;;;;;11.90;1.90;;;;;;;;;;5113766;28;20043;-78
2024/01/02 01:19:07;;;;;;;16.55;2.10;;;;;;;;;;5113749;28;20180;-78
2024/01/02 01:21:33;;;;;;;9.32;1.50;;;;;;;;;;5113979;28;20108;-78
2024/01/02 01:23:59;;;;;;;14.75;1.83;;;;;;;;;;5078860;28;20051;-78
2024/01/02 01:26:25;;;;;;;13.77;2.25;;;;;;;;;;5113730;28;20054;-78
2024/01/02 01:28:51;;;;;;;13.25;2.08;;;;;;;;;;5114071;28;20126;-78
2024/01/02 01:31:18;;;;;;;12.70;2.10;;;;;;;;;;5095756;28;20134;-78
2024/01/02 01:33:44;;;;;;;14.60;2.58;;;;;;;;;;5095546;28;20050;-78
2024/01/02 01:36:10;;;;;;;16.13;2.90;;;;;;;;;;5095519;28;20043;-78
2024/01/02 01:38:36;;;;;;;11.98;2.42;;;;;;;;;;5113844;28;20044;-78
2024/01/02 01:41:02;;;;;;;13.23;2.83;;;;;;;;;;5095542;28;20048;-78
2024/01/02 01:43:28;;;;;;;18.02;3.17;;;;;;;;;;5113670;28;20131;-78
2024/01/02 01:45:54;;;;;;;14.93;2.90;;;;;;;;;;5113565;28;20059;-78
2024/01/02 01:48:21;;;;;;;14.48;3.03;;;;;;;;;;5114299;28;20100;-78
2024/01/02 01:50:48;;;;;;;10.95;3.22;;;;;;;;;;5099487;28;20055;-78
2024/01/02 01:53:14;;;;;;;10.38;2.95;;;;;;;;;;5117160;28;20044;-78
2024/01/02 01:55:41;;;;;;;15.23;3.15;;;;;;;;;;5117029;28;20044;-78
2024/01/02 01:58:07;;;;;;;11.63;2.97;;;;;;;;;;5098791;28;20051;-78
2024/01/02 02:00:34;;;;;;;15.45;3.15;;;;;;;;;;5116382;28;20177;-78
2024/01/02 02:03:00;;;;;;;10.90;3.15;;;;;;;;;;5117013;28;20054;-78
2024/01/02 02:05:26;;;;;;;14.85;3.45;;;;;;;;;;5116956;28;20047;-78
2024/01/02 02:07:54;;;;;;;13.70;3.15;;;;;;;;;;5117107;28;20079;-78
2024/01/02 02:10:20;;;;;;;11.73;2.90;;;;;;;;;;5099251;28;20046;-78
2024/01/02 02:12:47;;;;;;;7.70;2.85;;;;;;;;;;5116801;28;20048;-78
2024/01/02 02:15:13;;;;;;;14.43;3.88;;;;;;;;;;5098226;28;20472;-78
2024/01/02 02:17:39;;;;;;;14.38;3.70;;;;;;;;;;5098787;28;20047;-78
2024/01/02 02:20:06;;;;;;;11.43;3.25;;;;;;;;;;5116787;28;20048;-78
2024/01/02 02:22:36;;;;;;;11.18;2.13;;;;;;;;;;5116661;28;20043;-78
2024/01/02 02:25:03;;;;;;;13.38;2.50;;;;;;;;;;5098336;28;20475;-78
2024/01/02 02:27:29;;;;;;;15.45;2.75;;;;;;;;;;5116592;28;20099;-78
2024/01/02 02:29:55;;;;;;;13.70;3.00;;;;;;;;;;5116544;28;20134;-78
2024/01/02 02:32:22;;;;;;;11.25;3.00;;;;;;;;;;5099048;28;20050;-78
2024/01/02 02:34:48;;;;;;;15.57;2.90;;;;;;;;;;5117188;28;20070;-78
2024/01/02 02:37:14;;;;;;;9.23;2.53;;;;;;;;;;5098533;28;20047;-78
2024/01/02 02:39:40;;;;;;;13.68;2.92;;;;;;;;;;5098348;28;20153;-77
2024/01/02 02:42:06;;;;;;;13.10;2.65;;;;;;;;;;5116312;28;20052;-77
2024/01/02 02:44:33;;;;;;;13.05;2.75;;;;;;;;;;5097510;28;20495;-77
2024/01/02 02:46:59;;;;;;;11.85;2.78;;;;;;;;;;5116111;28;20046;-77
2024/01/02 02:49:26;;;;;;;10.70;2.05;;;;;;;;;;5098179;28;20054;-77
2024/01/02 02:51:52;;;;;;;10.63;2.67;;;;;;;;;;5116143;28;20096;-77
2024/01/02 02:54:18;;;;;;;10.68;2.67;;;;;;;;;;5116484;28;20044;-77
2024/01/02 02:56:45;;;;;;;10.85;2.72;;;;;;;;;;5115954;28;20043;-77
2024/01/02 02:59:12;;;;;;;11.18;2.80;;;;;;;;;;5115934;28;20104;-77
2024/01/02 03:01:38;;;;;;;11.80;2.63;;;;;;;;;;5097540;28;20131;-78
2024/01/02 03:04:04;;;;;;;11.73;3.22;;;;;;;;;;5097626;28;20062;-78
2024/01/02 03:06:30;;;;;;;10.48;2.35;;;;;;;;;;5115691;28;20506;-78
2024/01/02 03:08:56;;;;;;;9.50;3.20;;;;;;;;;;5097569;28;20442;-78
2024/01/02 03:11:22;;;;;;;12.68;3.22;;;;;;;;;;5115754;28;20047;-78
2024/01/02 03:13:48;;;;;;;7.07;1.45;;;;;;;;;;5115056;28;20058;-78
2024/01/02 03:16:15;;;;;;;11.13;2.65;;;;;;;;;;5115611;28;20048;-78
2024/01/02 03:18:41;;;;;;;5.95;2.38;;;;;;;;;;5097738;28;20116;-78
2024/01/02 03:21:11;;;;;;;11.48;2.90;;;;;;;;;;5115496;28;20144;-78
2024/01/02 03:23:37;;;;;;;7.93;2.50;;;;;;;;;;5115433;28;20173;-78
2024/01/02 03:26:03;;;;;;;9.57;2.40;;;;;;;;;;5115443;28;20116;-78
2024/01/02 03:28:30;;;;;;;12.55;2.85;;;;;;;;;;5097185;28;20048;-78
2024/01/02 03:30:57;;;;;;;8.13;1.90;;;;;;;;;;5115163;28;20061;-78
2024/01/02 03:33:23;;;;;;;6.93;1.85;;;;;;;;;;5114945;28;20522;-78
2024/01/02 03:35:49;;;;;;;7.05;2.15;;;;;;;;;;5115194;28;20093;-78
2024/01/02 03:38:15;;;;;;;7.38;2.05;;;;;;;;;;5115187;28;20112;-78
2024/01/02 03:40:42;;;;;;;13.30;1.90;;;;;;;;;;5096822;28;20044;-78
2024/01/02 03:43:08;;;;;;;7.05;2.72;;;;;;;;;;5115485;28;20055;-78
2024/01/02 03:45:34;;;;;;;7.03;1.48;;;;;;;;;;5096379;28;20055;-78
2024/01/02 03:48:00;;;;;;;7.53;1.42;;;;;;;;;;5115007;28;20053;-78
2024/01/02 03:50:26;;;;;;;4.97;1.45;;;;;;;;;;5096891;28;20142;-78
2024/01/02 03:52:53;;;;;;;7.47;1.33;;;;;;;;;;5115148;28;20047;-78
2024/01/02 03:55:19;;;;;;;4.43;1.10;;;;;;;;;;5114866;28;20047;-78
2024/01/02 03:57:45;;;;;;;4.57;1.10;;;;;;;;;;5096842;28;20475;-78
2024/01/02 04:00:11;;;;;;;6.05;1.05;;;;;;;;;;5114630;28;20039;-78
2024/01/02 04:02:38;;;;;;;5.95;0.88;;;;;;;;;;5096495;28;20050;-77
2024/01/02 04:05:04;;;;;;;5.88;1.00;;;;;;;;;;5114664;28;20100;-76
2024/01/02 04:07:30;;;;;;;6.20;0.85;;;;;;;;;;5114743;28;20047;-76
2024/01/02 04:09:56;;;;;;;5.45;0.85;;;;;;;;;;5114603;28;20079;-76
2024/01/02 04:12:22;;;;;;;6.13;0.98;;;;;;;;;;5114172;28;20039;-76
2024/01/02 04:14:48;;;;;;;2.13;0.43;;;;;;;;;;5114078;28;20165;-76
2024/01/02 04:17:14;;;;;;;3.92;0.60;;;;;;;;;;5114426;28;20479;-76
2024/01/02 04:19:40;;;;;;;2.75;0.50;;;;;;;;;;5114371;28;20398;-76
2024/01/02 04:22:06;;;;;;;1.70;0.35;;;;;;;;;;5096512;28;20372;-77
2024/01/02 04:24:32;;;;;;;3.97;0.40;;;;;;;;;;5114323;28;20453;-76
2024/01/02 04:26:58;;;;;;;2.53;0.47;;;;;;;;;;5114401;28;20082;-76
2024/01/02 04:29:25;;;;;;;5.25;0.68;;;;;;;;;;5114348;28;20046;-76
2024/01/02 04:31:51;;;;;;;2.00;0.30;;;;;;;;;;5096425;28;20091;-76
2024/01/02 04:34:17;;;;;;;2.28;0.30;;;;;;;;;;5113740;28;20496;-76
2024/01/02 04:36:44;;;;;;;1.92;0.30;;;;;;;;;;5096141;28;20197;-76
2024/01/02 04:39:10;;;;;;;3.33;0.38;;;;;;;;;;5096298;28;20391;-77
2024/01/02 04:41:36;;;;;;;2.90;0.40;;;;;;;;;;5095758;28;20051;-77
2024/01/02 04:44:02;;;;;;;3.67;0.60;;;;;;;;;;5114003;28;20058;-77
2024/01/02 04:46:28;;;;;;;1.45;0.40;;;;;;;;;;5113662;28;20090;-77
2024/01/02 04:48:55;;;;;;;1.70;0.30;;;;;;;;;;5095640;28;20079;-77
2024/01/02 04:51:21;;;;;;;1.77;0.30;;;;;;;;;;5113912;28;20051;-77
2024/01/02 04:53:47;;;;;;;2.60;0.75;;;;;;;;;;5114075;28;20039;-77
2024/01/02 04:56:13;;;;;;;2.30;0.30;;;;;;;;;;5095837;28;20055;-77
2024/01/02 04:58:39;;;;;;;4.75;0.40;;;;;;;;;;5113981;28;20058;-78
2024/01/02 05:01:05;;;;;;;3.10;0.50;;;;;;;;;;5113602;28;20083;-76
2024/01/02 05:03:31;;;;;;;1.05;0.30;;;;;;;;;;5096018;28;20126;-76
2024/01/02 05:05:57;;;;;;;2.17;0.40;;;;;;;;;;5114351;28;20048;-75
2024/01/02 05:08:24;;;;;;;2.28;0.30;;;;;;;;;;5113911;28;20047;-76
2024/01/02 05:10:50;;;;;;;1.17;0.40;;;;;;;;;;5113907;28;20122;-76
2024/01/02 05:13:16;;;;;;;1.40;0.45;;;;;;;;;;5096562;28;20043;-77
2024/01/02 05:15:42;;;;;;;2.42;0.40;;;;;;;;;;5113261;28;20054;-76
2024/01/02 05:18:08;;;;;;;1.65;0.40;;;;;;;;;;5113753;28;20112;-77
2024/01/02 05:20:34;;;;;;;2.05;0.80;;;;;;;;;;5095786;28;20046;-77
2024/01/02 05:23:03;;;;;;;1.45;0.60;;;;;;;;;;5096026;28;20514;-77
2024/01/02 05:25:30;;;;;;;1.52;0.35;;;;;;;;;;5117227;28;20492;-77
2024/01/02 05:27:56;;;;;;;1.67;0.40;;;;;;;;;;5099461;28;20373;-77
2024/01/02 05:30:22;;;;;;;0.98;0.57;;;;;;;;;;5117701;28;20044;-77
2024/01/02 05:32:48;;;;;;;2.92;0.60;;;;;;;;;;5117512;28;20047;-77
2024/01/02 05:35:14;;;;;;;1.55;0.55;;;;;;;;;;5099298;28;20075;-77
2024/01/02 05:37:40;;;;;;;1.35;0.38;;;;;;;;;;5124912;27;20043;-78
2024/01/02 05:40:09;;;;;;;1.10;0.30;;;;;;;;;;5119665;27;20126;-78
2024/01/02 05:42:35;;;;;;;1.00;0.40;;;;;;;;;;5137776;27;20059;-78
2024/01/02 05:45:01;;;;;;;2.08;0.32;;;;;;;;;;5101921;27;20479;-78
2024/01/02 05:47:27;;;;;;;1.23;0.32;;;;;;;;;;5137914;27;20131;-78
2024/01/02 05:49:53;;;;;;;1.58;0.20;;;;;;;;;;5119960;27;20091;-78
2024/01/02 05:52:19;;;;;;;0.70;0.20;;;;;;;;;;5137800;27;20082;-78
2024/01/02 05:54:46;;;;;;;0.57;0.20;;;;;;;;;;5137757;27;20061;-78
2024/01/02 05:57:12;;;;;;;0.70;0.20;;;;;;;;;;5119575;27;20068;-78
2024/01/02 05:59:38;;;;;;;0.70;0.20;;;;;;;;;;5137676;27;20122;-78
2024/01/02 06:02:04;;;;;;;0.63;0.20;;;;;;;;;;5138109;27;20035;-78
2024/01/02 06:04:30;;;;;;;0.35;0.20;;;;;;;;;;5119613;27;20090;-77
2024/01/02 06:06:57;;;;;;;1.27;0.20;;;;;;;;;;5137577;27;20051;-76
2024/01/02 06:09:24;;;;;;;0.50;0.20;;;;;;;;;;5137500;27;20058;-76
2024/01/02 06:11:50;;;;;;;0.52;0.30;;;;;;;;;;5137452;27;20091;-76
2024/01/02 06:14:16;;;;;;;0.50;0.28;;;;;;;;;;5137276;27;20043;-77
2024/01/02 06:16:42;;;;;;;2.58;0.40;;;;;;;;;;5119303;27;20042;-77
2024/01/02 06:19:08;;;;;;;0.95;0.20;;;;;;;;;;5119265;27;20128;-76
2024/01/02 06:21:34;;;;;;;0.35;0.30;;;;;;;;;;5118857;27;20384;-77
2024/01/02 06:24:00;;;;;;;1.40;0.45;;;;;;;;;;5137271;27;20047;-78
2024/01/02 06:26:26;;;;;;;0.30;0.20;;;;;;;;;;5118820;27;20096;-78
2024/01/02 06:28:53;;;;;;;0.85;0.30;;;;;;;;;;5118815;27;20356;-78
2024/01/02 06:31:22;;;;;;;0.22;0.20;;;;;;;;;;5137381;27;20087;-78
2024/01/02 06:33:48;;;;;;;1.02;0.25;;;;;;;;;;5136850;27;20047;-77
2024/01/02 06:36:14;;;;;;;0.40;0.30;;;;;;;;;;5136883;27;20047;-77
2024/01/02 06:38:40;;;;;;;0.40;0.35;;;;;;;;;;5122412;27;20492;-77
2024/01/02 06:41:06;;;;;;;1.20;0.30;;;;;;;;;;5116111;28;20395;-77
2024/01/02 06:43:33;;;;;;;0.38;0.20;;;;;;;;;;5099009;28;20116;-77
2024/01/02 06:46:00;;;;;;;0.60;0.30;;;;;;;;;;5115740;28;20100;-78
2024/01/02 06:48:26;;;;;;;0.40;0.30;;;;;;;;;;5116210;28;20167;-78
2024/01/02 06:50:52;;;;;;;0.90;0.90;;;;;;;;;;5116364;28;20047;-78
2024/01/02 06:53:18;;;;;;;1.17;1.05;;;;;;;;;;5116150;28;20055;-77
2024/01/02 06:55:44;;;;;;;1.90;1.13;;;;;;;;;;5098033;28;20098;-77
2024/01/02 06:58:11;;;;;;;1.65;0.98;;;;;;;;;;5116005;28;20044;-78
2024/01/02 07:00:37;;;;;;;1.63;1.52;;;;;;;;;;5115944;28;20048;-78
2024/01/02 07:03:04;;;;;;;1.55;1.45;;;;;;;;;;5115825;28;20093;-78
2024/01/02 07:05:30;;;;;;;1.42;1.33;;;;;;;;;;5097698;28;20052;-78
2024/01/02 07:07:56;;;;;;;2.03;1.90;;;;;;;;;;5115914;28;20043;-78
2024/01/02 07:10:24;;;;;;;1.80;1.70;;;;;;;;;;5097614;28;20114;-78
2024/01/02 07:12:50;;;;;;;1.80;1.70;;;;;;;;;;5116115;28;20047;-78
2024/01/02 07:15:17;;;;;;;0.93;0.93;;;;;;;;;;5115072;28;20110;-78
2024/01/02 07:17:43;;;;;;;1.08;0.93;;;;;;;;;;5115384;28;20124;-78
2024/01/02 07:20:10;;;;;;;1.20;1.10;;;;;;;;;;5116033;28;20437;-78
2024/01/02 07:22:36;;;;;;;0.80;0.80;;;;;;;;;;5117225;27;20039;-78
2024/01/02 07:25:02;;;;;;;1.00;0.93;;;;;;;;;;5135965;27;20039;-78
2024/01/02 07:27:28;;;;;;;1.23;1.10;;;;;;;;;;5117807;27;20480;-78
2024/01/02 07:29:54;;;;;;;1.30;1.15;;;;;;;;;;5135966;27;20404;-78
2024/01/02 07:32:20;;;;;;;1.13;1.05;;;;;;;;;;5117797;27;20066;-78
2024/01/02 07:34:46;;;;;;;2.85;1.75;;;;;;;;;;5118162;27;20054;-78
2024/01/02 07:37:12;;;;;;;1.23;1.13;;;;;;;;;;5135752;27;20055;-78
2024/01/02 07:39:38;;;;;;;1.10;1.00;;;;;;;;;;5117728;27;20135;-78
2024/01/02 07:42:06;;;;;;;1.65;0.80;;;;;;;;;;5099971;27;20514;-78
2024/01/02 07:44:32;;;;;;;1.27;1.08;;;;;;;;;;5117655;27;20046;-78
2024/01/02 07:46:58;;;;;;;1.73;0.98;;;;;;;;;;5134808;27;20047;-78
2024/01/02 07:49:24;;;;;;;1.40;0.93;;;;;;;;;;5135644;27;20043;-78
2024/01/02 07:51:51;;;;;;;1.42;0.90;;;;;;;;;;5135451;27;20062;-78
2024/01/02 07:54:18;;;;;;;1.40;0.90;;;;;;;;;;5135460;27;20104;-78
2024/01/02 07:56:44;;;;;;;1.38;1.27;;;;;;;;;;5136087;27;20058;-78
2024/01/02 07:59:15;;;;;;;1.92;1.17;;;;;;;;;;5117171;27;20039;-78
2024/01/02 08:01:41;;;;;;;3.53;1.77;;;;;;;;;;5116800;27;20053;-78
2024/01/02 08:04:07;;;;;;;2.65;1.52;;;;;;;;;;5135299;27;20380;-78
2024/01/02 08:06:33;;;;;;;2.63;1.90;;;;;;;;;;5135314;27;20054;-78
2024/01/02 08:09:00;;;;;;;4.07;2.28;;;;;;;;;;5135147;27;20130;-79
2024/01/02 08:11:27;;;;;;;3.83;2.63;;;;;;;;;;5100317;27;20059;-79
2024/01/02 08:13:53;;;;;;;3.47;2.75;;;;;;;;;;5116661;27;20058;-79
2024/01/02 08:16:20;;;;;;;5.88;2.50;;;;;;;;;;5116707;27;20051;-79
2024/01/02 08:18:46;;;;;;;5.60;2.78;;;;;;;;;;5135023;27;20046;-79
2024/01/02 08:21:12;;;;;;;7.47;3.90;;;;;;;;;;5134933;27;20082;-78
2024/01/02 08:23:38;;;;;;;5.38;4.05;;;;;;;;;;5116745;27;20054;-79
2024/01/02 08:26:22;;;;;;;8.00;3.85;;;;;;;;;;5116845;27;20399;-79
2024/01/02 08:28:49;;;;;;;5.97;4.07;;;;;;;;;;5135027;27;20104;-79
2024/01/02 08:31:15;;;;;;;10.35;4.38;;;;;;;;;;5134774;27;20043;-79
2024/01/02 08:33:41;;;;;;;9.07;4.43;;;;;;;;;;5135198;27;20049;-79
2024/01/02 08:36:10;;;;;;;7.53;3.83;;;;;;;;;;5134821;27;20043;-79
2024/01/02 08:38:36;;;;;;;5.38;4.40;;;;;;;;;;5116749;28;20051;-78
2024/01/02 08:41:02;;;;;;;9.77;4.57;;;;;;;;;;5082549;27;20054;-78
2024/01/02 08:43:28;;;;;;;11.00;4.82;;;;;;;;;;5134654;27;20065;-79
2024/01/02 08:45:55;;;;;;;9.07;4.25;;;;;;;;;;5116035;28;20449;-79
2024/01/02 08:48:21;;;;;;;12.00;6.25;;;;;;;;;;5116564;28;20459;-78
2024/01/02 08:50:47;;;;;;;10.35;4.93;;;;;;;;;;5116651;28;20104;-78
2024/01/02 08:53:13;;;;;;;11.50;6.07;;;;;;;;;;5116207;28;20054;-79
2024/01/02 08:55:40;;;;;;;9.75;5.05;;;;;;;;;;5099611;28;20055;-78
2024/01/02 08:58:06;;;;;;;12.00;4.95;;;;;;;;;;5101887;27;20062;-78
2024/01/02 09:00:33;;;;;;;12.15;4.75;;;;;;;;;;5138815;27;20123;-78
2024/01/02 09:03:02;;;;;;;16.27;4.75;;;;;;;;;;5138948;27;20054;-78
2024/01/02 09:05:29;;;;;;;15.70;4.90;;;;;;;;;;5120548;27;20051;-78
2024/01/02 09:07:55;;;;;;;13.05;4.55;;;;;;;;;;5138648;27;20047;-78
2024/01/02 09:10:22;;;;;;;10.05;4.80;;;;;;;;;;5138648;27;20054;-78
2024/01/02 09:12:48;;;;;;;13.13;4.65;;;;;;;;;;5138606;27;20047;-78
2024/01/02 09:15:15;;;;;;;11.10;3.97;;;;;;;;;;5119737;27;20044;-78
2024/01/02 09:17:41;;;;;;;14.15;3.80;;;;;;;;;;5138395;27;20082;-81
2024/01/02 09:20:08;;;;;;;15.05;4.00;;;;;;;;;;5120346;27;20047;-78
2024/01/02 09:22:34;;;;;;;15.70;3.60;;;;;;;;;;5120092;27;20130;-78
2024/01/02 09:25:00;;;;;;;16.77;3.70;;;;;;;;;;5120443;27;20047;-78
2024/01/02 09:27:30;;;;;;;17.77;3.80;;;;;;;;;;5137995;27;20547;-78
2024/01/02 09:29:58;;;;;;;18.13;3.40;;;;;;;;;;5120110;27;20043;-78
2024/01/02 09:32:24;;;;;;;17.75;3.10;;;;;;;;;;5138148;27;20035;-78
2024/01/02 09:34:51;;;;;;;15.40;3.35;;;;;;;;;;5138195;27;20066;-78
2024/01/02 09:37:17;;;;;;;12.25;2.42;;;;;;;;;;5102784;27;20047;-78
2024/01/02 09:39:44;;;;;;;15.65;2.53;;;;;;;;;;5119974;27;20039;-78
2024/01/02 09:42:29;;;;;;;19.10;2.90;;;;;;;;;;5119370;27;20062;-78
2024/01/02 09:44:55;;;;;;;13.10;1.52;;;;;;;;;;5119612;27;20051;-78
2024/01/02 09:47:41;;;;;;;20.13;2.40;;;;;;;;;;5119992;27;20398;-78
2024/01/02 09:50:12;;;;;;;19.10;2.40;;;;;;;;;;5108871;27;20058;-78
2024/01/02 09:52:50;;;;;;;14.95;2.22;;;;;;;;;;5137818;27;20041;-78
2024/01/02 09:55:16;;;;;;;12.18;2.15;;;;;;;;;;5119699;27;20595;-78
2024/01/02 09:58:12;;;;;;;13.45;1.92;;;;;;;;;;5137811;27;20064;-78
2024/01/02 10:01:01;;;;;;;22.90;2.25;;;;;;;;;;5124536;27;20051;-78
2024/01/02 10:03:30;;;;;;;22.92;2.25;;;;;;;;;;5118979;27;20052;-78
2024/01/02 10:06:07;;;;;;;15.50;1.85;;;;;;;;;;5119618;27;20559;-78
2024/01/02 10:08:36;;;;;;;17.48;2.15;;;;;;;;;;5137378;27;20058;-78
2024/01/02 10:11:18;;;;;;;25.33;3.35;;;;;;;;;;5137048;27;20047;-78
2024/01/02 10:13:55;;;;;;;26.08;2.85;;;;;;;;;;5137389;27;20493;-78
2024/01/02 10:16:46;;;;;;;15.00;2.35;;;;;;;;;;5119421;27;20051;-78
2024/01/02 10:19:25;;;;;;;23.77;6.22;;;;;;;;;;5137378;27;20067;-77
2024/01/02 10:22:02;;;;;;;22.40;2.97;;;;;;;;;;5137147;27;20062;-78
2024/01/02 10:24:40;;;;;;;24.02;3.53;;;;;;;;;;5137596;27;20050;-78
2024/01/02 10:27:15;;;;;;;25.98;3.45;;;;;;;;;;5137251;27;20428;-78
2024/01/02 10:30:17;;;;;;;21.88;3.78;;;;;;;;;;5119461;27;20100;-78
2024/01/02 10:33:02;;;;;;;25.40;3.67;;;;;;;;;;5073483;28;20041;-78
2024/01/02 10:35:33;;;;;;;24.65;3.60;;;;;;;;;;5131950;27;20090;-78
2024/01/02 10:38:08;;;;;;;27.88;3.15;;;;;;;;;;5137024;27;20039;-78
2024/01/02 10:40:37;;;;;;;21.17;3.63;;;;;;;;;;5137215;27;20043;-78
2024/01/02 10:43:07;;;;;;;25.45;4.47;;;;;;;;;;5137115;27;20142;-78
2024/01/02 10:45:59;;;;;;;32.35;4.00;;;;;;;;;;5118616;27;20067;-78
2024/01/02 10:48:25;;;;;;;20.75;3.97;;;;;;;;;;5095104;27;20081;-78
2024/01/02 10:51:03;;;;;;;23.73;3.72;;;;;;;;;;5118363;27;20100;-78
2024/01/02 10:53:32;;;;;;;22.92;3.60;;;;;;;;;;5118680;27;20047;-78
2024/01/02 10:56:25;;;;;;;27.35;4.00;;;;;;;;;;5136663;27;20306;-78
2024/01/02 10:59:03;;;;;;;27.92;3.88;;;;;;;;;;5112249;27;20090;-78
2024/01/02 11:01:31;;;;;;;26.80;4.28;;;;;;;;;;5136442;27;20433;-78
2024/01/02 11:04:07;;;;;;;27.80;4.97;;;;;;;;;;5136251;27;20522;-78
2024/01/02 11:06:45;;;;;;;30.00;4.15;;;;;;;;;;5136511;27;20399;-78
2024/01/02 11:09:29;;;;;;;25.48;4.32;;;;;;;;;;5118413;27;20126;-78
2024/01/02 11:11:57;;;;;;;24.88;4.28;;;;;;;;;;5118155;27;20051;-78
2024/01/02 11:14:25;;;;;;;25.58;4.53;;;;;;;;;;5135871;27;20076;-78
2024/01/02 11:16:53;;;;;;;20.77;4.15;;;;;;;;;;5136236;27;20046;-78
2024/01/02 11:19:22;;;;;;;21.25;4.00;;;;;;;;;;5136110;27;20120;-78
2024/01/02 11:21:55;;;;;;;23.10;4.05;;;;;;;;;;5134963;27;20043;-78
2024/01/02 11:24:26;;;;;;;25.73;5.80;;;;;;;;;;5136657;27;20047;-78
2024/01/02 11:26:56;;;;;;;25.38;4.72;;;;;;;;;;5136579;27;20487;-78
2024/01/02 11:29:26;;;;;;;25.63;4.63;;;;;;;;;;5117864;27;20046;-78
2024/01/02 11:31:54;;;;;;;28.17;5.80;;;;;;;;;;5118129;27;20055;-78
2024/01/02 11:34:59;;;;;;;23.15;4.68;;;;;;;;;;5135870;27;20071;-78
2024/01/02 11:37:36;;;;;;;29.10;6.43;;;;;;;;;;5055866;28;20087;-78
2024/01/02 11:40:22;;;;;;;31.20;6.03;;;;;;;;;;5111825;27;20608;-78
2024/01/02 11:43:07;;;;;;;36.65;7.22;;;;;;;;;;5135541;27;20463;-78
2024/01/02 11:45:33;;;;;;;29.02;5.72;;;;;;;;;;5099994;27;20039;-78
2024/01/02 11:48:08;;;;;;;28.52;6.82;;;;;;;;;;5135589;27;20103;-78
2024/01/02 11:50:34;;;;;;;;;;;;;;;;;;5135825;27;20091;-78
2024/01/02 11:53:07;;;;;;;28.33;6.05;;;;;;;;;;5116702;27;19919;-78
2024/01/02 11:55:40;;;;;;;30.95;6.53;;;;;;;;;;5135625;27;20043;-78
2024/01/02 11:58:32;;;;;;;31.33;6.72;;;;;;;;;;5116626;27;20050;-79
2024/01/02 12:01:07;;;;;;;31.33;6.57;;;;;;;;;;5129167;27;20062;-79
2024/01/02 12:03:33;;;;;;;;;;;;;;;;;;5135911;27;20051;-79
2024/01/02 12:06:03;;;;;;;31.92;6.35;;;;;;;;;;5117061;27;19930;-79
2024/01/02 12:08:29;;;;;;;30.23;7.05;;;;;;;;;;5117151;27;20395;-79
2024/01/02 12:10:58;;;;;;;32.33;6.50;;;;;;;;;;5134911;27;20547;-79
2024/01/02 12:13:26;;;;;;;37.70;7.70;;;;;;;;;;5135504;27;20058;-79
2024/01/02 12:15:54;;;;;;;30.63;5.80;;;;;;;;;;5134679;27;20043;-79
2024/01/02 12:18:24;;;;;;;34.60;7.30;;;;;;;;;;5116650;27;20173;-79
2024/01/02 12:20:56;;;;;;;29.85;6.68;;;;;;;;;;5135160;27;20168;-79
2024/01/02 12:23:23;;;;;;;36.97;6.93;;;;;;;;;;5135013;27;20051;-79
2024/01/02 12:25:50;;;;;;;36.00;6.63;;;;;;;;;;5117169;27;20103;-79
2024/01/02 12:28:18;;;;;;;36.35;5.88;;;;;;;;;;5116870;27;20047;-79
2024/01/02 12:31:10;;;;;;;30.05;5.95;;;;;;;;;;5117351;27;20054;-79
2024/01/02 12:33:36;;;;;;;37.22;6.82;;;;;;;;;;5134736;27;20050;-79
2024/01/02 12:36:21;;;;;;;40.50;6.85;;;;;;;;;;5116255;28;20482;-78
2024/01/02 12:38:47;;;;;;;42.15;7.38;;;;;;;;;;5134775;27;20050;-79
2024/01/02 12:41:17;;;;;;;33.05;6.70;;;;;;;;;;5132293;27;20082;-79
2024/01/02 12:43:49;;;;;;;34.53;6.75;;;;;;;;;;5114070;28;20062;-79
2024/01/02 12:46:19;;;;;;;36.58;7.20;;;;;;;;;;5131238;27;20109;-79
2024/01/02 12:48:54;;;;;;;33.25;7.28;;;;;;;;;;5115224;28;20584;-79
2024/01/02 12:51:21;;;;;;;24.50;5.80;;;;;;;;;;5113136;28;20115;-79
2024/01/02 12:53:50;;;;;;;41.13;8.23;;;;;;;;;;5133091;28;20039;-79
2024/01/02 12:56:19;;;;;;;34.80;7.88;;;;;;;;;;5121995;28;20043;-79
2024/01/02 12:58:46;;;;;;;36.35;8.05;;;;;;;;;;5112284;28;20043;-79
2024/01/02 13:01:14;;;;;;;39.30;8.63;;;;;;;;;;5132296;28;20043;-79
2024/01/02 13:03:43;;;;;;;35.40;9.68;;;;;;;;;;5132849;28;20575;-79
2024/01/02 13:06:10;;;;;;;38.60;11.00;;;;;;;;;;5132793;28;20417;-79
2024/01/02 13:08:37;;;;;;;33.15;8.93;;;;;;;;;;5114427;28;20047;-79
2024/01/02 13:11:03;;;;;;;30.70;9.70;;;;;;;;;;5132237;28;20047;-80
2024/01/02 13:13:31;;;;;;;30.95;10.02;;;;;;;;;;5114448;28;20047;-80
2024/01/02 13:15:59;;;;;;;31.88;10.77;;;;;;;;;;5114725;28;20039;-79
2024/01/02 13:18:26;;;;;;;35.80;12.50;;;;;;;;;;5114126;28;20055;-79
2024/01/02 13:20:54;;;;;;;31.65;12.95;;;;;;;;;;5114342;28;20039;-79
2024/01/02 13:23:20;;;;;;;36.42;12.82;;;;;;;;;;5132402;28;20136;-79
2024/01/02 13:25:46;;;;;;;39.42;14.23;;;;;;;;;;5115044;28;20114;-79
2024/01/02 13:28:19;;;;;;;33.92;13.32;;;;;;;;;;5110660;28;20116;-79
2024/01/02 13:30:47;;;;;;;30.05;12.55;;;;;;;;;;5114339;28;20082;-79
2024/01/02 13:33:15;;;;;;;30.52;12.25;;;;;;;;;;5131550;28;20050;-79
2024/01/02 13:35:45;;;;;;;24.65;11.85;;;;;;;;;;5112627;28;20555;-80
2024/01/02 13:38:12;;;;;;;33.38;13.35;;;;;;;;;;5097852;28;20043;-79
2024/01/02 13:40:38;;;;;;;34.17;13.32;;;;;;;;;;5106590;28;20083;-79
2024/01/02 13:43:05;;;;;;;31.10;13.00;;;;;;;;;;5126639;28;20043;-79
2024/01/02 13:45:32;;;;;;;26.08;12.02;;;;;;;;;;5133467;27;20096;-77
2024/01/02 13:48:09;;;;;;;20.67;10.23;;;;;;;;;;5135736;27;20039;-77
2024/01/02 13:50:37;;;;;;;13.23;6.90;;;;;;;;;;5132437;27;20043;-78
2024/01/02 13:53:04;;;;;;;9.45;4.63;;;;;;;;;;5136004;27;20082;-77
2024/01/02 13:55:30;;;;;;;5.68;4.38;;;;;;;;;;5135048;27;20509;-78
2024/01/02 13:58:07;;;;;;;7.55;4.85;;;;;;;;;;5136853;27;20555;-78
2024/01/02 14:00:34;;;;;;;9.23;5.57;;;;;;;;;;5131531;27;20043;-79
2024/01/02 14:03:01;;;;;;;8.10;5.28;;;;;;;;;;5135599;27;20031;-78
2024/01/02 14:05:29;;;;;;;9.02;6.05;;;;;;;;;;5136355;27;20043;-78
2024/01/02 14:07:55;;;;;;;6.38;5.78;;;;;;;;;;5136096;27;20047;-78
2024/01/02 14:10:29;;;;;;;5.80;5.30;;;;;;;;;;5136969;27;20551;-78
2024/01/02 14:12:55;;;;;;;5.95;5.18;;;;;;;;;;5131554;27;20043;-78
2024/01/02 14:15:25;;;;;;;4.35;3.90;;;;;;;;;;5135672;27;20104;-78
2024/01/02 14:18:04;;;;;;;5.78;5.28;;;;;;;;;;5137400;27;20051;-78
2024/01/02 14:20:40;;;;;;;3.60;3.22;;;;;;;;;;5118969;27;20371;-77
2024/01/02 14:23:06;;;;;;;3.30;3.10;;;;;;;;;;5137348;27;20043;-78
2024/01/02 14:25:54;;;;;;;6.38;3.20;;;;;;;;;;5137240;27;20092;-78
2024/01/02 14:28:20;;;;;;;1.77;1.67;;;;;;;;;;5102796;27;20444;-78
2024/01/02 14:30:53;;;;;;;2.03;1.92;;;;;;;;;;5135818;27;20039;-78
2024/01/02 14:33:19;;;;;;;3.08;2.92;;;;;;;;;;5115885;27;20482;-78
2024/01/02 14:35:51;;;;;;;1.17;1.08;;;;;;;;;;5136530;27;20607;-78
2024/01/02 14:38:22;;;;;;;0.85;0.85;;;;;;;;;;5137034;27;20129;-78
2024/01/02 14:40:49;;;;;;;2.92;2.60;;;;;;;;;;5136577;27;20050;-78
2024/01/02 14:43:15;;;;;;;3.83;3.53;;;;;;;;;;5144707;27;20133;-78